Terminal Aerodrome Forecast
Issued by NWS

Home | Current Version | Previous Version | Text Only | Print | Product List | Glossary On
Versions: 1 2 3 4 5 6 7 8 9 10 11 12 13 14
000
FTUS42 TJSJ 020500 RRA
TAFKPK
TAF
TKPK 020543Z 0206/0306 07018G30KT 2SM TSRA BKN008CB
     FM021000 13020G30KT P6SM -SHRA VCTS BKN030CB
     FM022000 12014G21KT P6SM VCSH BKN040
      AMD NOT SKED TIL 021100=

USA.gov is the U.S. government's official web portal to all federal, state and local government web resources and services.